首页
METAR-TAF:

METAR-TAF

机场 :

布里格姆城, 犹他州, 美国

纬度: 41-33-09N, 经度: 112-03-44W, 海拔: 1289米

当前天气观测

该预报发布于30分钟前的20:30 UTC
风速4节,风向西北
温度 31°C
湿度 10%
气压 1011 hPa
能見度: 16.1公里
天空无云

METAR: KBMC 222030Z AUTO 31004KT 10SM CLR 31/M04 A2986 RMK AO1 T03071037

时间: 15:00 (21:00 UTC)


TAF: 丢失

超过4000个机场的气象观测和天气预报(METAR&TAF报告)。

可查询的气象台以黄色和红色小点在地图上表示。

将鼠标移到小点上方,可查看气象台名称。

然后点击查看天气观测和预报。

如需切换地图:点击带黑十字的绿色按钮放大地图;点击带横线的绿色按钮缩小地图;或者点击绿色箭头查看邻近地区的地图。


METAR-TAF: